.
WxDataArchive / Data Records for 2013-04-26
2013-04-25 April 2013 2013-04-27

Data Records for Friday, 26 April 2013

Time	Temp	Chill	HIndex	Humid	Dewpt	 Wind 	HiWind	WindDir	Rain 	Barom 
-----	----	-----	------	-----	-----	------	------	-------	-----	----- 
00:00	35.0	35.0	35.0	82	30.1	0	0	---	0.00	30.377 
00:05	34.9	34.9	34.9	82	30.0	0	1	292	0.00	30.377 
00:10	34.9	34.9	34.9	82	30.0	0	0	---	0.00	30.377 
00:15	34.9	34.9	34.9	82	30.0	0	0	---	0.00	30.374 
00:20	34.7	34.7	34.7	82	29.8	0	0	---	0.00	30.374 
00:25	34.7	34.7	34.7	82	29.8	0	0	---	0.00	30.374 
00:30	34.6	34.6	34.6	83	30.0	0	0	---	0.00	30.375 
00:35	34.6	34.6	34.6	83	30.0	0	0	---	0.00	30.375 
00:40	34.6	34.6	34.6	83	30.0	0	0	---	0.00	30.375 
00:45	34.6	34.6	34.6	83	30.0	0	0	---	0.00	30.375 
00:50	34.7	34.7	34.7	83	30.1	0	0	---	0.00	30.375 
00:55	34.7	34.7	34.7	83	30.1	0	0	---	0.00	30.375 
01:00	34.6	34.6	34.6	83	30.0	0	0	---	0.00	30.378 
01:05	34.4	34.4	34.4	83	29.8	0	0	---	0.00	30.378 
01:10	34.3	34.3	34.3	83	29.7	0	0	---	0.00	30.378 
01:15	34.0	34.0	34.0	83	29.4	0	0	---	0.00	30.379 
01:20	33.8	33.8	33.8	84	29.5	0	0	---	0.00	30.379 
01:25	33.7	33.7	33.7	84	29.4	0	0	---	0.00	30.379 
01:30	33.5	33.5	33.5	84	29.2	0	0	---	0.00	30.372 
01:35	33.4	33.4	33.4	84	29.1	0	0	---	0.00	30.372 
01:40	33.4	33.4	33.4	85	29.4	0	0	---	0.00	30.372 
01:45	33.2	33.2	33.2	85	29.2	0	0	---	0.00	30.376 
01:50	33.1	33.1	33.1	85	29.1	0	0	---	0.00	30.376 
01:55	32.9	32.9	32.9	85	28.9	0	0	---	0.00	30.376 
02:00	32.8	32.8	32.8	85	28.8	0	0	---	0.00	30.373 
02:05	32.7	32.7	32.7	86	29.0	0	0	---	0.00	30.373 
02:10	32.7	32.7	32.7	86	29.0	0	0	---	0.00	30.373 
02:15	32.7	32.7	32.7	86	29.0	0	0	---	0.00	30.373 
02:20	32.5	32.5	32.5	87	29.1	0	0	---	0.00	30.373 
02:25	32.4	32.4	32.4	87	29.0	0	0	---	0.00	30.373 
02:30	32.2	32.2	32.2	87	28.8	0	0	---	0.00	30.375 
02:35	32.1	32.1	32.1	87	28.7	0	0	---	0.00	30.375 
02:40	32.1	32.1	32.1	88	29.0	0	0	---	0.00	30.375 
02:45	31.9	31.9	31.9	88	28.8	0	0	---	0.00	30.375 
02:50	31.8	31.8	31.8	88	28.7	0	0	---	0.00	30.375 
02:55	31.6	31.6	31.6	88	28.5	0	0	---	0.00	30.375 
03:00	31.5	31.5	31.5	88	28.4	0	0	---	0.00	30.372 
03:05	31.3	31.3	31.3	88	28.2	0	0	---	0.00	30.372 
03:10	31.3	31.3	31.3	88	28.2	0	0	---	0.00	30.372 
03:15	31.2	31.2	31.2	88	28.1	0	0	---	0.00	30.375 
03:20	31.0	31.0	31.0	88	27.9	0	0	---	0.00	30.375 
03:25	30.9	30.9	30.9	88	27.8	0	0	---	0.00	30.375 
03:30	30.9	30.9	30.9	88	27.8	0	0	---	0.00	30.380 
03:35	30.7	30.7	30.7	88	27.6	0	0	---	0.00	30.380 
03:40	30.7	30.7	30.7	89	27.8	0	0	---	0.00	30.380 
03:45	30.6	30.6	30.6	89	27.8	0	0	---	0.00	30.383 
03:50	30.4	30.4	30.4	89	27.6	0	0	---	0.00	30.383 
03:55	30.4	30.4	30.4	89	27.6	0	0	---	0.00	30.383 
04:00	30.3	30.3	30.3	89	27.5	0	0	---	0.00	30.387 
04:05	30.1	30.1	30.1	89	27.3	0	0	---	0.00	30.387 
04:10	30.0	30.0	30.0	89	27.2	0	0	---	0.00	30.387 
04:15	29.8	29.8	29.8	89	27.0	0	0	---	0.00	30.388 
04:20	29.8	29.8	29.8	89	27.0	0	0	---	0.00	30.388 
04:25	29.8	29.8	29.8	89	27.0	0	0	---	0.00	30.388 
04:30	29.7	29.7	29.7	89	26.9	0	0	---	0.00	30.388 
04:35	29.7	29.7	29.7	89	26.9	0	0	---	0.00	30.388 
04:40	29.7	29.7	29.7	90	27.1	0	0	---	0.00	30.388 
04:45	29.7	29.7	29.7	90	27.1	0	0	---	0.00	30.388 
04:50	29.5	29.5	29.5	90	26.9	0	0	---	0.00	30.388 
04:55	29.5	29.5	29.5	90	26.9	0	0	---	0.00	30.388 
05:00	29.5	29.5	29.5	90	26.9	0	0	---	0.00	30.388 
05:05	29.5	29.5	29.5	90	26.9	0	0	---	0.00	30.388 
05:10	29.5	29.5	29.5	90	26.9	0	0	---	0.00	30.388 
05:15	29.5	29.5	29.5	90	26.9	0	0	---	0.00	30.391 
05:20	29.4	29.4	29.4	91	27.1	0	0	---	0.00	30.391 
05:25	29.4	29.4	29.4	91	27.1	0	0	---	0.00	30.391 
05:30	29.4	29.4	29.4	91	27.1	0	0	---	0.00	30.398 
05:35	29.3	29.3	29.3	91	27.0	0	0	---	0.00	30.398 
05:40	29.3	29.3	29.3	91	27.0	0	0	---	0.00	30.398 
05:45	29.3	29.3	29.3	91	27.0	0	0	---	0.00	30.400 
05:50	29.3	29.3	29.3	91	27.0	0	0	---	0.00	30.400 
05:55	29.3	29.3	29.3	91	27.0	0	0	---	0.00	30.400 
06:00	29.1	29.1	29.1	91	26.8	0	0	---	0.00	30.404 
06:05	29.3	29.3	29.3	91	27.0	0	0	---	0.00	30.404 
06:10	29.3	29.3	29.3	91	27.0	0	0	---	0.00	30.404 
06:15	29.1	29.1	29.1	91	26.8	0	0	---	0.00	30.409 
06:20	29.0	29.0	29.0	91	26.7	0	0	---	0.00	30.409 
06:25	29.0	29.0	29.0	91	26.7	0	0	---	0.00	30.409 
06:30	28.8	28.8	28.8	91	26.5	0	0	---	0.00	30.417 
06:35	28.8	28.8	28.8	92	26.8	0	0	---	0.00	30.417 
06:40	29.0	29.0	29.0	92	27.0	0	0	---	0.00	30.417 
06:45	28.8	28.8	28.8	92	26.8	0	0	---	0.00	30.421 
06:50	28.8	28.8	28.8	92	26.8	0	0	---	0.00	30.421 
06:55	28.8	28.8	28.8	92	26.8	0	0	---	0.00	30.421 
07:00	28.8	28.8	28.8	92	26.8	0	0	---	0.00	30.425 
07:05	28.7	28.7	28.7	92	26.7	0	0	---	0.00	30.425 
07:10	28.8	28.8	28.8	92	26.8	0	0	---	0.00	30.425 
07:15	29.0	29.0	29.0	92	27.0	0	0	---	0.00	30.432 
07:20	29.1	29.1	29.1	92	27.1	0	0	---	0.00	30.432 
07:25	29.4	29.4	29.4	92	27.4	0	0	---	0.00	30.432 
07:30	29.7	29.7	29.7	92	27.7	0	0	---	0.00	30.433 
07:35	30.1	30.1	30.1	92	28.1	0	0	---	0.00	30.433 
07:40	30.7	30.7	30.7	93	28.9	0	0	---	0.00	30.433 
07:45	32.2	32.2	32.2	94	30.7	0	0	---	0.00	30.434 
07:50	33.4	33.4	33.4	94	31.9	0	1	292	0.00	30.434 
07:55	34.4	34.4	34.4	93	32.6	0	0	---	0.00	30.434 
08:00	35.3	35.3	35.3	93	33.5	0	1	292	0.00	30.433 
08:05	36.2	36.2	36.2	92	34.1	0	1	292	0.00	30.433 
08:10	37.0	37.0	37.0	91	34.6	0	1	292	0.00	30.433 
08:15	37.9	37.9	37.9	89	35.0	0	1	292	0.00	30.441 
08:20	38.8	38.8	38.8	87	35.3	0	1	292	0.00	30.441 
08:25	39.5	39.5	39.5	84	35.1	0	1	292	0.00	30.441 
08:30	40.3	40.3	40.3	84	35.9	0	0	---	0.00	30.445 
08:35	41.1	41.1	41.1	82	36.0	0	0	---	0.00	30.445 
08:40	41.8	41.8	41.8	77	35.1	0	1	292	0.00	30.445 
08:45	42.5	42.5	42.5	75	35.1	0	2	292	0.00	30.445 
08:50	42.9	42.9	42.9	72	34.5	0	1	292	0.00	30.445 
08:55	43.5	43.5	43.5	67	33.3	1	3	292	0.00	30.445 
09:00	44.1	44.1	44.1	66	33.5	1	3	292	0.00	30.444 
09:05	44.6	44.6	44.6	63	32.8	0	3	292	0.00	30.444 
09:10	45.5	45.5	45.5	63	33.6	0	2	292	0.00	30.444 
09:15	46.2	46.2	46.2	58	32.2	1	4	292	0.00	30.446 
09:20	46.8	46.8	46.8	54	31.0	1	5	90	0.00	30.446 
09:25	47.1	47.1	47.1	55	31.8	1	4	112	0.00	30.446 
09:30	47.4	47.4	47.4	55	32.1	0	2	112	0.00	30.450 
09:35	47.7	47.7	47.7	51	30.5	1	4	112	0.00	30.450 
09:40	48.0	48.0	48.0	50	30.3	1	5	112	0.00	30.450 
09:45	48.8	48.8	48.8	49	30.5	1	4	112	0.00	30.436 
09:50	49.2	49.2	49.2	47	29.8	1	3	112	0.00	30.436 
09:55	49.4	49.4	49.4	49	31.0	1	3	112	0.00	30.436 
10:00	49.5	49.5	49.5	45	29.0	2	6	90	0.00	30.430 
10:05	49.8	49.8	49.8	46	29.9	2	5	90	0.00	30.430 
10:10	50.1	50.1	50.1	47	30.7	1	4	112	0.00	30.430 
10:15	50.2	50.2	50.2	46	30.2	3	6	90	0.00	30.436 
10:20	50.7	50.7	50.7	48	31.7	1	3	90	0.00	30.436 
10:25	51.3	51.3	51.3	46	31.2	1	5	112	0.00	30.436 
10:30	51.7	51.7	51.7	47	32.1	1	4	112	0.00	30.442 
10:35	52.2	52.2	52.2	47	32.6	1	3	112	0.00	30.442 
10:40	52.3	52.3	52.3	46	32.1	2	5	112	0.00	30.442 
10:45	52.5	52.5	52.5	44	31.2	1	3	112	0.00	30.438 
10:50	52.6	52.6	52.6	44	31.3	1	5	112	0.00	30.438 
10:55	52.9	52.9	52.9	47	33.2	1	4	135	0.00	30.438 
11:00	53.3	53.3	53.3	43	31.4	2	4	135	0.00	30.440 
11:05	53.3	53.3	53.3	42	30.8	2	5	90	0.00	30.440 
11:10	53.6	53.6	53.6	44	32.2	1	4	90	0.00	30.440 
11:15	53.6	53.6	53.6	43	31.7	2	6	112	0.00	30.442 
11:20	53.6	53.6	53.6	43	31.7	1	4	90	0.00	30.442 
11:25	53.8	53.8	53.8	40	30.1	2	5	90	0.00	30.442 
11:30	54.1	54.1	54.1	43	32.1	1	4	90	0.00	30.442 
11:35	54.5	54.5	54.5	41	31.3	1	2	112	0.00	30.442 
11:40	54.5	54.5	54.5	43	32.5	1	3	112	0.00	30.442 
11:45	54.7	54.7	54.7	43	32.6	1	4	112	0.00	30.441 
11:50	54.8	54.8	54.8	40	30.9	1	5	112	0.00	30.441 
11:55	55.0	55.0	55.0	40	31.1	2	5	112	0.00	30.441 
12:00	54.8	54.8	54.8	39	30.3	1	6	90	0.00	30.442 
12:05	55.0	55.0	55.0	44	33.5	2	6	112	0.00	30.442 
12:10	55.3	55.3	55.3	43	33.2	3	7	90	0.00	30.442 
12:15	55.4	55.4	55.4	40	31.5	2	5	90	0.00	30.441 
12:20	55.1	55.1	55.1	42	32.4	3	6	112	0.00	30.441 
12:25	55.3	55.3	55.3	43	33.2	1	5	112	0.00	30.441 
12:30	55.6	55.6	55.6	44	34.0	1	3	248	0.00	30.441 
12:35	55.9	55.9	55.9	42	33.1	1	3	90	0.00	30.441 
12:40	56.5	56.5	56.5	42	33.7	1	6	90	0.00	30.441 
12:45	56.9	56.9	56.9	45	35.8	0	3	90	0.00	30.437 
12:50	56.9	56.9	56.9	41	33.4	1	4	68	0.00	30.437 
12:55	57.0	57.0	57.0	42	34.1	1	6	112	0.00	30.437 
13:00	57.2	57.2	57.2	41	33.7	1	3	112	0.00	30.435 
13:05	57.3	57.3	57.3	42	34.4	1	3	112	0.00	30.435 
13:10	57.3	57.3	57.3	42	34.4	1	3	270	0.00	30.435 
13:15	57.6	57.6	57.6	42	34.7	1	4	270	0.00	30.430 
13:20	57.8	57.8	57.8	42	34.9	1	6	112	0.00	30.430 
13:25	57.5	57.5	57.5	41	34.0	2	5	112	0.00	30.430 
13:30	57.2	57.2	57.2	39	32.5	1	3	112	0.00	30.427 
13:35	57.3	57.3	57.3	43	35.0	1	3	112	0.00	30.427 
13:40	57.6	57.6	57.6	43	35.3	1	5	135	0.00	30.427 
13:45	58.1	58.1	58.1	43	35.7	1	4	90	0.00	30.420 
13:50	58.4	58.4	58.4	43	36.0	1	3	22	0.00	30.420 
13:55	58.3	58.3	58.3	39	33.5	1	3	0	0.00	30.420 
14:00	58.3	58.3	58.3	43	35.9	2	5	135	0.00	30.423 
14:05	58.3	58.3	58.3	44	36.5	1	4	90	0.00	30.423 
14:10	58.3	58.3	58.3	42	35.3	2	5	112	0.00	30.423 
14:15	58.1	58.1	58.1	39	33.3	3	9	90	0.00	30.413 
14:20	58.3	58.3	58.3	39	33.5	2	6	90	0.00	30.413 
14:25	58.6	58.6	58.6	44	36.8	2	5	90	0.00	30.413 
14:30	58.9	58.9	58.9	42	35.9	1	3	90	0.00	30.405 
14:35	59.3	59.3	59.3	41	35.6	1	4	90	0.00	30.405 
14:40	59.3	59.3	59.3	40	35.0	2	6	90	0.00	30.405 
14:45	59.2	59.2	59.2	40	34.9	2	7	90	0.00	30.398 
14:50	59.2	59.2	59.2	39	34.3	2	4	112	0.00	30.398 
14:55	59.0	59.0	59.0	39	34.1	2	5	112	0.00	30.398 
15:00	58.9	58.9	58.9	39	34.0	3	6	112	0.00	30.393 
15:05	58.7	58.7	58.7	41	35.1	2	6	90	0.00	30.393 
15:10	59.2	59.2	59.2	40	34.9	2	4	112	0.00	30.393 
15:15	59.3	59.3	59.3	40	35.0	1	4	112	0.00	30.385 
15:20	59.8	59.8	59.8	41	36.1	1	3	112	0.00	30.385 
15:25	60.1	60.1	60.1	39	35.1	1	3	270	0.00	30.385 
15:30	59.9	59.9	59.9	38	34.2	2	9	112	0.00	30.378 
15:35	59.6	59.6	59.6	36	32.6	1	5	112	0.00	30.378 
15:40	59.0	59.0	59.0	39	34.1	2	7	112	0.00	30.378 
15:45	58.7	58.7	58.7	37	32.5	1	3	112	0.00	30.380 
15:50	58.7	58.7	58.7	38	33.2	2	5	90	0.00	30.380 
15:55	58.7	58.7	58.7	39	33.8	1	5	112	0.00	30.380 
16:00	59.0	59.0	59.0	40	34.7	2	5	90	0.00	30.378 
16:05	59.3	59.3	59.3	37	33.0	1	3	90	0.00	30.378 
16:10	59.5	59.5	59.5	36	32.5	2	5	112	0.00	30.378 
16:15	59.3	59.3	59.3	36	32.4	1	3	112	0.00	30.373 
16:20	59.8	59.8	59.8	41	36.1	1	4	248	0.00	30.373 
16:25	60.4	60.4	60.4	39	35.3	1	4	90	0.00	30.373 
16:30	60.7	60.7	60.7	36	33.6	2	5	112	0.00	30.368 
16:35	60.7	60.7	60.7	36	33.6	1	4	112	0.00	30.368 
16:40	60.7	60.7	60.7	35	32.9	1	5	90	0.00	30.368 
16:45	60.5	60.5	60.5	37	34.1	2	7	112	0.00	30.359 
16:50	60.4	60.4	60.4	35	32.6	2	5	112	0.00	30.359 
16:55	60.2	60.2	60.2	39	35.2	1	4	68	0.00	30.359 
17:00	60.5	60.5	60.5	37	34.1	1	3	68	0.00	30.361 
17:05	60.7	60.7	60.7	38	34.9	2	5	90	0.00	30.361 
17:10	60.9	60.9	60.9	41	37.0	2	6	112	0.00	30.361 
17:15	61.2	61.2	61.2	38	35.4	1	5	248	0.00	30.356 
17:20	61.5	61.5	61.5	39	36.3	1	4	248	0.00	30.356 
17:25	61.5	61.5	61.5	38	35.7	1	3	68	0.00	30.356 
17:30	61.3	61.3	61.3	39	36.1	2	5	112	0.00	30.353 
17:35	61.5	61.5	61.5	41	37.6	1	4	112	0.00	30.353 
17:40	61.5	61.5	61.5	38	35.7	1	3	112	0.00	30.353 
17:45	61.2	61.2	61.2	38	35.4	2	6	112	0.00	30.348 
17:50	60.9	60.9	60.9	37	34.5	2	4	90	0.00	30.348 
17:55	60.7	60.7	60.7	39	35.6	1	3	90	0.00	30.348 
18:00	60.7	60.7	60.7	39	35.6	0	3	90	0.00	30.350 
18:05	60.4	60.4	60.4	37	34.0	1	4	90	0.00	30.350 
18:10	60.4	60.4	60.4	38	34.7	1	4	90	0.00	30.350 
18:15	60.2	60.2	60.2	38	34.5	3	7	90	0.00	30.351 
18:20	60.4	60.4	60.4	38	34.7	1	3	270	0.00	30.351 
18:25	60.4	60.4	60.4	39	35.3	2	6	90	0.00	30.351 
18:30	60.2	60.2	60.2	39	35.2	1	3	270	0.00	30.351 
18:35	60.1	60.1	60.1	40	35.7	1	3	270	0.00	30.351 
18:40	59.9	59.9	59.9	41	36.1	1	4	270	0.00	30.351 
18:45	59.8	59.8	59.8	40	35.4	1	3	45	0.00	30.351 
18:50	59.6	59.6	59.6	41	35.9	1	4	270	0.00	30.351 
18:55	59.6	59.6	59.6	41	35.9	1	3	112	0.00	30.351 
19:00	59.6	59.6	59.6	41	35.9	1	4	45	0.00	30.349 
19:05	59.5	59.5	59.5	40	35.2	1	3	225	0.00	30.349 
19:10	59.5	59.5	59.5	39	34.5	1	3	112	0.00	30.349 
19:15	59.5	59.5	59.5	40	35.2	2	4	90	0.00	30.343 
19:20	59.5	59.5	59.5	40	35.2	1	4	90	0.00	30.343 
19:25	59.3	59.3	59.3	39	34.3	1	4	112	0.00	30.343 
19:30	59.2	59.2	59.2	40	34.9	1	4	22	0.00	30.342 
19:35	58.9	58.9	58.9	40	34.6	1	3	45	0.00	30.342 
19:40	58.7	58.7	58.7	41	35.1	1	4	45	0.00	30.342 
19:45	58.6	58.6	58.6	42	35.6	1	3	112	0.00	30.340 
19:50	58.3	58.3	58.3	43	35.9	0	3	112	0.00	30.340 
19:55	57.8	57.8	57.8	43	35.5	0	2	112	0.00	30.340 
20:00	57.5	57.5	57.5	44	35.8	0	2	112	0.00	30.343 
20:05	57.2	57.2	57.2	45	36.1	0	2	112	0.00	30.343 
20:10	56.9	56.9	56.9	45	35.8	0	1	112	0.00	30.343 
20:15	56.7	56.7	56.7	45	35.6	0	1	112	0.00	30.334 
20:20	56.5	56.5	56.5	45	35.4	0	1	112	0.00	30.334 
20:25	56.2	56.2	56.2	46	35.7	0	2	112	0.00	30.334 
20:30	56.0	56.0	56.0	45	35.0	0	2	112	0.00	30.334 
20:35	55.9	55.9	55.9	46	35.4	0	1	112	0.00	30.334 
20:40	55.7	55.7	55.7	46	35.2	0	1	112	0.00	30.334 
20:45	55.3	55.3	55.3	47	35.4	0	0	---	0.00	30.336 
20:50	54.8	54.8	54.8	48	35.5	0	0	---	0.00	30.336 
20:55	54.5	54.5	54.5	48	35.2	0	0	---	0.00	30.336 
21:00	54.1	54.1	54.1	49	35.4	0	0	---	0.00	30.339 
21:05	53.6	53.6	53.6	50	35.4	0	0	---	0.00	30.339 
21:10	53.2	53.2	53.2	50	35.0	0	0	---	0.00	30.339 
21:15	52.9	52.9	52.9	51	35.3	0	0	---	0.00	30.337 
21:20	52.6	52.6	52.6	52	35.5	0	0	---	0.00	30.337 
21:25	52.3	52.3	52.3	52	35.2	0	0	---	0.00	30.337 
21:30	52.2	52.2	52.2	53	35.6	0	0	---	0.00	30.338 
21:35	51.9	51.9	51.9	54	35.8	0	0	---	0.00	30.338 
21:40	51.6	51.6	51.6	54	35.5	0	0	---	0.00	30.338 
21:45	51.1	51.1	51.1	55	35.5	0	0	---	0.00	30.343 
21:50	50.8	50.8	50.8	55	35.2	0	0	---	0.00	30.343 
21:55	50.5	50.5	50.5	56	35.4	0	0	---	0.00	30.343 
22:00	50.2	50.2	50.2	57	35.6	0	0	---	0.00	30.348 
22:05	49.9	49.9	49.9	57	35.3	0	0	---	0.00	30.348 
22:10	49.6	49.6	49.6	58	35.4	0	0	---	0.00	30.348 
22:15	49.2	49.2	49.2	59	35.5	0	0	---	0.00	30.349 
22:20	48.9	48.9	48.9	60	35.6	0	0	---	0.00	30.349 
22:25	48.6	48.6	48.6	61	35.8	0	0	---	0.00	30.349 
22:30	48.3	48.3	48.3	62	35.9	0	0	---	0.00	30.345 
22:35	48.0	48.0	48.0	63	36.0	0	0	---	0.00	30.345 
22:40	47.7	47.7	47.7	63	35.7	0	0	---	0.00	30.345 
22:45	47.4	47.4	47.4	64	35.8	0	0	---	0.00	30.344 
22:50	47.0	47.0	47.0	64	35.5	0	0	---	0.00	30.344 
22:55	46.7	46.7	46.7	65	35.6	0	0	---	0.00	30.344 
23:00	46.2	46.2	46.2	66	35.5	0	0	---	0.00	30.342 
23:05	46.0	46.0	46.0	66	35.3	0	0	---	0.00	30.342 
23:10	45.7	45.7	45.7	68	35.8	0	0	---	0.00	30.342 
23:15	45.4	45.4	45.4	69	35.8	0	0	---	0.00	30.338 
23:20	45.1	45.1	45.1	69	35.5	0	0	---	0.00	30.338 
23:25	44.8	44.8	44.8	70	35.6	0	0	---	0.00	30.338 
23:30	44.5	44.5	44.5	70	35.3	0	0	---	0.00	30.339 
23:35	44.2	44.2	44.2	71	35.4	0	0	---	0.00	30.339 
23:40	43.9	43.9	43.9	72	35.5	0	0	---	0.00	30.339 
23:45	43.8	43.8	43.8	73	35.7	0	0	---	0.00	30.341 
23:50	43.5	43.5	43.5	73	35.4	0	0	---	0.00	30.341 
23:55	43.3	43.3	43.3	74	35.6	0	0	---	0.00	30.341 

CoCoRaHS
IN-AL-39
A2 Web Hosting
Creative Commons License
GoDaddy
search engine by freefind advanced

loaded 2018-11-18 11:29:55 • last modified 2010-11-18 10:43:29
Privacy PolicyDisclaimer
• wx.awcolley.com is powered by PmWiki v.2002016 •
• all content (unless otherwise noted) © 2018 A W Colley